createdAt,value
2019-05-23T00:01:00.719Z,2.47
2019-05-23T00:03:30.620Z,2.53
2019-05-23T00:06:00.515Z,2.90
2019-05-23T00:08:30.427Z,2.70
2019-05-23T00:11:03.103Z,3.10
2019-05-23T00:13:43.664Z,2.60
2019-05-23T00:16:15.279Z,2.33
2019-05-23T00:18:44.347Z,3.10
2019-05-23T00:21:14.120Z,2.50
2019-05-23T00:23:42.357Z,3.40
2019-05-23T00:26:32.514Z,2.43
2019-05-23T00:29:09.948Z,2.37
2019-05-23T00:31:36.973Z,2.57
2019-05-23T00:34:06.946Z,2.77
2019-05-23T00:36:35.596Z,2.27
2019-05-23T00:39:06.413Z,2.03
2019-05-23T00:41:35.178Z,2.13
2019-05-23T00:44:03.459Z,2.17
2019-05-23T00:46:31.703Z,2.80
2019-05-23T00:49:00.350Z,2.00
2019-05-23T00:51:29.870Z,2.37
2019-05-23T00:53:58.163Z,2.73
2019-05-23T00:56:27.370Z,2.40
2019-05-23T00:58:56.092Z,2.40
2019-05-23T01:01:25.763Z,2.40
2019-05-23T01:03:54.629Z,2.80
2019-05-23T01:06:23.727Z,2.47
2019-05-23T01:09:13.121Z,2.50
2019-05-23T01:11:42.581Z,2.00
2019-05-23T01:14:11.203Z,2.30
2019-05-23T01:16:39.542Z,2.27
2019-05-23T01:19:09.478Z,2.20
2019-05-23T01:21:48.064Z,2.87
2019-05-23T01:24:18.332Z,1.30
2019-05-23T01:26:48.072Z,2.00
2019-05-23T01:29:17.893Z,2.13
2019-05-23T01:31:47.814Z,2.37
2019-05-23T01:34:16.757Z,2.10
2019-05-23T01:36:45.961Z,2.20
2019-05-23T01:39:14.585Z,2.50
2019-05-23T01:41:43.340Z,1.90
2019-05-23T01:44:13.022Z,1.90
2019-05-23T01:46:41.629Z,1.87
2019-05-23T01:49:09.875Z,1.83
2019-05-23T01:51:38.151Z,1.67
2019-05-23T01:54:07.691Z,1.27
2019-05-23T01:56:36.122Z,2.10
2019-05-23T01:59:04.471Z,3.10
2019-05-23T02:01:32.971Z,2.30
2019-05-23T02:04:02.314Z,2.07
2019-05-23T02:06:30.634Z,2.00
2019-05-23T02:08:59.188Z,1.60
2019-05-23T02:11:27.455Z,1.93
2019-05-23T02:13:56.205Z,2.10
2019-05-23T02:16:25.702Z,1.97
2019-05-23T02:18:54.276Z,1.80
2019-05-23T02:21:22.533Z,1.90
2019-05-23T02:23:50.800Z,2.00
2019-05-23T02:26:20.020Z,1.83
2019-05-23T02:28:49.052Z,1.87
2019-05-23T02:31:17.973Z,1.80
2019-05-23T02:33:46.534Z,2.23
2019-05-23T02:36:15.624Z,1.83
2019-05-23T02:38:54.363Z,2.13
2019-05-23T02:41:36.740Z,2.30
2019-05-23T02:47:04.517Z,1.90
2019-05-23T02:49:34.325Z,1.40
2019-05-23T02:52:23.177Z,1.63
2019-05-23T02:54:52.187Z,1.50
2019-05-23T02:57:21.602Z,2.00
2019-05-23T02:59:52.957Z,2.00
2019-05-23T03:02:43.681Z,1.33
2019-05-23T03:05:12.162Z,1.80
2019-05-23T03:07:40.491Z,1.00
2019-05-23T03:10:09.517Z,1.47
2019-05-23T03:12:38.634Z,1.30
2019-05-23T03:15:08.543Z,2.23
2019-05-23T03:17:39.143Z,1.23
2019-05-23T03:20:08.783Z,1.73
2019-05-23T03:22:50.474Z,1.33
2019-05-23T03:25:38.184Z,1.87
2019-05-23T03:28:07.429Z,1.57
2019-05-23T03:30:52.686Z,1.40
2019-05-23T03:33:21.413Z,1.63
2019-05-23T03:35:59.657Z,1.50
2019-05-23T03:38:28.016Z,1.70
2019-05-23T03:40:56.318Z,2.27
2019-05-23T03:43:25.712Z,1.40
2019-05-23T03:46:08.725Z,1.60
2019-05-23T03:48:37.890Z,1.63
2019-05-23T03:51:07.039Z,1.07
2019-05-23T03:53:35.896Z,1.13
2019-05-23T03:56:04.509Z,1.17
2019-05-23T03:58:33.418Z,1.77
2019-05-23T04:01:05.426Z,1.47
2019-05-23T04:03:39.704Z,1.27
2019-05-23T04:06:05.318Z,1.70
2019-05-23T04:08:34.021Z,1.57
2019-05-23T04:11:03.071Z,1.20
2019-05-23T04:13:31.450Z,1.67
2019-05-23T04:16:00.315Z,1.30
2019-05-23T04:18:28.994Z,1.60
2019-05-23T04:20:57.576Z,1.67
2019-05-23T04:23:26.102Z,1.57
2019-05-23T04:25:54.748Z,1.57
2019-05-23T04:28:22.997Z,1.40
2019-05-23T04:30:51.364Z,1.13
2019-05-23T04:33:20.869Z,1.20
2019-05-23T04:35:49.482Z,1.57
2019-05-23T04:38:17.961Z,1.40
2019-05-23T04:40:46.717Z,1.10
2019-05-23T04:43:15.068Z,1.30
2019-05-23T04:45:43.874Z,1.83
2019-05-23T04:48:12.230Z,1.50
2019-05-23T04:50:40.511Z,1.30
2019-05-23T04:53:09.621Z,1.20
2019-05-23T04:55:37.861Z,1.20
2019-05-23T04:58:06.419Z,1.30
2019-05-23T05:00:35.069Z,1.13
2019-05-23T05:03:04.865Z,1.37
2019-05-23T05:05:33.685Z,1.17
2019-05-23T05:08:01.991Z,1.30
2019-05-23T05:10:30.375Z,0.90
2019-05-23T05:12:59.088Z,1.50
2019-05-23T05:15:27.538Z,1.17
2019-05-23T05:17:55.855Z,1.60
2019-05-23T05:20:24.174Z,1.33
2019-05-23T05:22:53.022Z,1.37
2019-05-23T05:25:21.607Z,1.53
2019-05-23T05:27:50.157Z,1.30
2019-05-23T05:30:18.383Z,1.10
2019-05-23T05:32:47.149Z,1.23
2019-05-23T05:35:15.887Z,1.40
2019-05-23T05:37:44.176Z,1.20
2019-05-23T05:40:13.579Z,1.77
2019-05-23T05:42:43.495Z,1.23
2019-05-23T05:45:11.857Z,1.50
2019-05-23T05:47:40.399Z,1.67
2019-05-23T05:50:11.475Z,1.80
2019-05-23T05:52:40.183Z,2.13
2019-05-23T05:55:09.332Z,1.83
2019-05-23T05:57:37.573Z,1.57
2019-05-23T06:00:24.693Z,2.33
2019-05-23T06:03:03.424Z,2.00
2019-05-23T06:05:24.624Z,6.70
2019-05-23T06:07:53.336Z,4.00
2019-05-23T06:10:21.625Z,2.90
2019-05-23T06:12:50.300Z,3.40
2019-05-23T06:15:19.094Z,3.87
2019-05-23T06:18:08.206Z,3.90
2019-05-23T06:20:40.895Z,2.60
2019-05-23T06:23:09.662Z,2.47
2019-05-23T06:25:37.951Z,2.60
2019-05-23T06:28:06.447Z,2.93
2019-05-23T06:30:34.738Z,3.83
2019-05-23T06:33:19.974Z,2.67
2019-05-23T06:35:33.013Z,3.90
2019-05-23T06:38:01.542Z,2.93
2019-05-23T06:40:29.999Z,3.50
2019-05-23T06:42:58.712Z,2.30
2019-05-23T06:45:27.525Z,3.53
2019-05-23T06:47:55.844Z,2.00
2019-05-23T06:50:25.770Z,2.57
2019-05-23T06:52:54.186Z,2.60
2019-05-23T06:55:22.423Z,2.47
2019-05-23T06:57:50.733Z,2.27
2019-05-23T07:00:20.661Z,2.50
2019-05-23T07:02:49.204Z,2.93
2019-05-23T07:05:17.806Z,1.63
2019-05-23T07:07:46.057Z,2.57
2019-05-23T07:10:14.455Z,3.50
2019-05-23T07:12:42.805Z,2.72
2019-05-23T07:15:11.074Z,2.70
2019-05-23T07:17:39.631Z,1.97
2019-05-23T07:20:07.901Z,1.70
2019-05-23T07:22:36.206Z,2.20
2019-05-23T07:25:06.128Z,2.10
2019-05-23T07:27:34.556Z,2.10
2019-05-23T07:30:05.766Z,2.83
2019-05-23T07:32:34.058Z,2.27
2019-05-23T07:35:02.352Z,1.70
2019-05-23T07:37:30.591Z,1.77
2019-05-23T07:39:58.891Z,2.70
2019-05-23T07:42:27.489Z,3.00
2019-05-23T07:44:56.032Z,2.40
2019-05-23T07:47:25.205Z,1.40
2019-05-23T07:49:53.704Z,2.03
2019-05-23T07:52:22.013Z,2.40
2019-05-23T07:54:51.925Z,2.90
2019-05-23T07:57:20.459Z,3.03
2019-05-23T07:59:49.498Z,2.37
2019-05-23T08:02:29.617Z,1.90
2019-05-23T08:04:57.878Z,2.50
2019-05-23T08:07:26.412Z,2.43
2019-05-23T08:09:54.775Z,2.13
2019-05-23T08:12:23.043Z,2.70
2019-05-23T08:14:51.387Z,3.20
2019-05-23T08:17:20.469Z,2.10
2019-05-23T08:19:50.368Z,1.80
2019-05-23T08:22:18.980Z,1.73
2019-05-23T08:24:50.962Z,1.90
2019-05-23T08:27:18.117Z,2.07
2019-05-23T08:29:46.584Z,1.40
2019-05-23T08:32:15.322Z,1.40
2019-05-23T08:34:43.764Z,1.67
2019-05-23T08:37:12.217Z,1.47
2019-05-23T08:39:40.789Z,2.10
2019-05-23T08:42:09.365Z,1.47
2019-05-23T08:44:37.694Z,1.97
2019-05-23T08:47:07.610Z,1.43
2019-05-23T08:49:35.893Z,1.30
2019-05-23T08:52:05.862Z,1.60
2019-05-23T08:54:34.889Z,1.40
2019-05-23T08:57:04.462Z,2.97
2019-05-23T08:59:32.900Z,1.40
2019-05-23T09:02:01.867Z,1.77
2019-05-23T09:04:30.384Z,1.20
2019-05-23T09:06:59.238Z,1.30
2019-05-23T09:09:30.313Z,2.30
2019-05-23T09:11:58.828Z,1.13
2019-05-23T09:14:27.172Z,1.00
2019-05-23T09:16:55.884Z,1.93
2019-05-23T09:19:24.190Z,1.23
2019-05-23T09:21:57.538Z,1.23
2019-05-23T09:24:22.784Z,0.90
2019-05-23T09:26:51.375Z,1.10
2019-05-23T09:29:19.916Z,1.20
2019-05-23T09:31:48.689Z,1.03
2019-05-23T09:34:17.347Z,1.20
2019-05-23T09:36:45.591Z,1.30
2019-05-23T09:39:15.446Z,1.00
2019-05-23T09:41:43.814Z,1.10
2019-05-23T09:44:12.405Z,1.10
2019-05-23T09:46:40.716Z,1.63
2019-05-23T09:49:11.207Z,1.40
2019-05-23T09:51:38.945Z,1.00
2019-05-23T09:54:07.211Z,0.90
2019-05-23T09:56:36.042Z,0.80
2019-05-23T09:59:04.353Z,1.50
2019-05-23T10:01:32.710Z,1.30
2019-05-23T10:04:01.151Z,0.80
2019-05-23T10:06:29.429Z,0.97
2019-05-23T10:08:57.781Z,1.00
2019-05-23T10:11:26.026Z,0.87
2019-05-23T10:13:54.317Z,1.00
2019-05-23T10:16:22.560Z,1.00
2019-05-23T10:18:50.929Z,0.90
2019-05-23T10:21:19.269Z,1.23
2019-05-23T10:23:47.573Z,1.23
2019-05-23T10:26:15.916Z,1.03
2019-05-23T10:28:44.180Z,0.90
2019-05-23T10:31:14.033Z,1.03
2019-05-23T10:33:42.345Z,1.70
2019-05-23T10:36:10.632Z,0.83
2019-05-23T10:38:39.000Z,0.80
2019-05-23T10:41:07.343Z,0.90
2019-05-23T10:43:35.597Z,1.93
2019-05-23T10:46:03.895Z,1.70
2019-05-23T10:48:32.248Z,1.40
2019-05-23T10:51:00.604Z,1.50
2019-05-23T10:53:29.047Z,1.33
2019-05-23T10:55:57.323Z,0.97
2019-05-23T10:58:25.784Z,1.20
2019-05-23T11:00:54.058Z,2.10
2019-05-23T11:03:23.241Z,1.50
2019-05-23T11:05:51.596Z,0.90
2019-05-23T11:08:20.329Z,1.73
2019-05-23T11:10:49.129Z,1.47
2019-05-23T11:13:17.425Z,1.30
2019-05-23T11:15:45.722Z,1.60
2019-05-23T11:18:14.450Z,1.00
2019-05-23T11:20:43.106Z,1.17
2019-05-23T11:23:13.095Z,1.10
2019-05-23T11:25:41.342Z,0.80
2019-05-23T11:28:09.626Z,0.83
2019-05-23T11:30:54.650Z,1.47
2019-05-23T11:33:24.253Z,1.83
2019-05-23T11:35:52.546Z,1.10
2019-05-23T11:38:21.470Z,1.10
2019-05-23T11:40:50.209Z,1.20
2019-05-23T11:43:18.519Z,1.43
2019-05-23T11:45:48.463Z,1.60
2019-05-23T11:48:17.268Z,1.10
2019-05-23T11:50:45.614Z,1.73
2019-05-23T11:53:13.870Z,1.50
2019-05-23T11:55:42.150Z,0.80
2019-05-23T11:58:10.425Z,1.20
2019-05-23T12:00:51.104Z,0.87
2019-05-23T12:03:19.632Z,1.10
2019-05-23T12:05:47.857Z,1.50
2019-05-23T12:08:16.196Z,1.30
2019-05-23T12:10:44.435Z,1.27
2019-05-23T12:13:12.727Z,1.30
2019-05-23T12:15:42.163Z,1.20
2019-05-23T12:18:10.461Z,1.30
2019-05-23T12:20:38.837Z,1.00
2019-05-23T12:23:10.801Z,1.63
2019-05-23T12:25:37.582Z,1.10
2019-05-23T12:28:07.421Z,1.40
2019-05-23T12:30:35.980Z,1.63
2019-05-23T12:33:04.844Z,1.10
2019-05-23T12:35:33.337Z,1.13
2019-05-23T12:38:02.586Z,1.53
2019-05-23T12:40:31.191Z,0.97
2019-05-23T12:42:59.534Z,1.10
2019-05-23T12:45:27.768Z,0.90
2019-05-23T12:47:57.703Z,1.17
2019-05-23T12:50:33.684Z,1.30
2019-05-23T12:53:01.911Z,1.30
2019-05-23T12:55:30.201Z,1.23
2019-05-23T12:57:58.464Z,1.13
2019-05-23T13:00:34.318Z,1.20
2019-05-23T13:03:02.662Z,2.13
2019-05-23T13:05:31.201Z,1.20
2019-05-23T13:07:59.581Z,2.23
2019-05-23T13:10:27.839Z,1.80
2019-05-23T13:12:56.108Z,2.23
2019-05-23T13:15:24.958Z,1.50
2019-05-23T13:17:53.253Z,1.03
2019-05-23T13:20:21.805Z,1.80
2019-05-23T13:22:50.103Z,1.90
2019-05-23T13:25:18.453Z,1.03
2019-05-23T13:27:46.713Z,1.53
2019-05-23T13:30:15.415Z,1.27
2019-05-23T13:32:43.772Z,1.20
2019-05-23T13:35:12.049Z,1.30
2019-05-23T13:37:53.135Z,1.20
2019-05-23T13:40:11.564Z,1.23
2019-05-23T13:42:40.347Z,1.20
2019-05-23T13:45:08.679Z,1.50
2019-05-23T13:47:36.949Z,1.50
2019-05-23T13:50:07.332Z,1.27
2019-05-23T13:52:36.141Z,1.40
2019-05-23T13:55:06.365Z,1.77
2019-05-23T13:57:35.309Z,1.40
2019-05-23T14:00:07.213Z,1.27
2019-05-23T14:02:35.591Z,1.30
2019-05-23T14:05:05.998Z,1.20
2019-05-23T14:07:35.035Z,1.03
2019-05-23T14:10:07.623Z,1.17
2019-05-23T14:12:36.156Z,1.10
2019-05-23T14:15:07.125Z,1.40
2019-05-23T14:17:39.952Z,1.50
2019-05-23T14:20:08.194Z,1.40
2019-05-23T14:22:38.135Z,1.50
2019-05-23T14:25:06.485Z,0.70
2019-05-23T14:27:48.425Z,1.27
2019-05-23T14:30:18.590Z,1.23
2019-05-23T14:32:48.499Z,1.33
2019-05-23T14:35:19.050Z,1.10
2019-05-23T14:37:57.752Z,0.87
2019-05-23T14:40:26.303Z,1.37
2019-05-23T14:42:56.212Z,0.90
2019-05-23T14:45:43.990Z,1.30
2019-05-23T14:48:13.990Z,1.10
2019-05-23T14:50:44.075Z,1.77
2019-05-23T14:53:14.024Z,1.00
2019-05-23T14:55:42.441Z,1.30
2019-05-23T14:58:10.865Z,1.10
2019-05-23T15:00:39.519Z,1.03
2019-05-23T15:03:07.961Z,1.10
2019-05-23T15:05:36.255Z,1.10
2019-05-23T15:08:04.501Z,1.00
2019-05-23T15:10:33.120Z,1.40
2019-05-23T15:13:01.418Z,1.20
2019-05-23T15:15:29.914Z,0.83
2019-05-23T15:17:58.161Z,1.37
2019-05-23T15:20:26.829Z,1.40
2019-05-23T15:22:55.097Z,0.90
2019-05-23T15:25:23.400Z,1.00
2019-05-23T15:27:51.693Z,1.10
2019-05-23T15:30:20.131Z,1.50
2019-05-23T15:32:48.466Z,1.50
2019-05-23T15:35:17.025Z,0.93
2019-05-23T15:37:45.349Z,1.10
2019-05-23T15:40:14.136Z,1.33
2019-05-23T15:42:42.421Z,1.50
2019-05-23T15:45:10.720Z,1.23
2019-05-23T15:47:39.033Z,1.10
2019-05-23T15:50:11.369Z,1.30
2019-05-23T15:52:41.057Z,1.30
2019-05-23T15:55:11.471Z,1.37
2019-05-23T15:57:47.353Z,1.10
2019-05-23T16:00:32.466Z,1.70
2019-05-23T16:03:05.238Z,1.37
2019-05-23T16:05:33.605Z,2.00
2019-05-23T16:08:02.425Z,0.87
2019-05-23T16:10:31.466Z,1.27
2019-05-23T16:12:59.844Z,1.20
2019-05-23T16:15:28.619Z,2.23
2019-05-23T16:17:57.232Z,2.23
2019-05-23T16:20:25.697Z,1.87
2019-05-23T16:22:53.950Z,1.80
2019-05-23T16:25:41.651Z,2.20
2019-05-23T16:28:09.957Z,3.30
2019-05-23T16:30:38.467Z,1.07
2019-05-23T16:33:06.965Z,1.43
2019-05-23T16:35:35.271Z,1.30
2019-05-23T16:38:03.559Z,3.20
2019-05-23T16:40:31.853Z,1.70
2019-05-23T16:43:00.125Z,1.67
2019-05-23T16:45:28.405Z,1.57
2019-05-23T16:47:56.682Z,1.50
2019-05-23T16:50:25.000Z,1.57
2019-05-23T16:52:53.430Z,1.10
2019-05-23T16:55:38.451Z,1.80
2019-05-23T16:58:08.489Z,2.17
2019-05-23T17:00:54.761Z,1.50
2019-05-23T17:03:27.427Z,1.20
2019-05-23T17:06:00.021Z,1.30
2019-05-23T17:08:36.387Z,1.10
2019-05-23T17:11:29.749Z,1.97
2019-05-23T17:14:05.883Z,1.27
2019-05-23T17:16:35.818Z,1.60
2019-05-23T17:19:14.680Z,1.20
2019-05-23T17:21:56.625Z,1.73
2019-05-23T17:24:29.273Z,1.13
2019-05-23T17:27:14.088Z,1.20
2019-05-23T17:29:46.977Z,1.97
2019-05-23T17:32:19.637Z,1.20
2019-05-23T17:34:47.924Z,2.20
2019-05-23T17:37:16.336Z,1.30
2019-05-23T17:39:46.275Z,1.20
2019-05-23T17:42:14.540Z,1.63
2019-05-23T17:44:42.878Z,1.93
2019-05-23T17:47:11.187Z,1.50
2019-05-23T17:49:39.742Z,1.63
2019-05-23T17:52:08.898Z,1.00
2019-05-23T17:54:37.287Z,1.73
2019-05-23T17:57:05.634Z,1.40
2019-05-23T17:59:33.957Z,1.43
2019-05-23T18:02:03.445Z,1.00
2019-05-23T18:04:31.909Z,1.47
2019-05-23T18:07:00.213Z,1.40
2019-05-23T18:09:28.938Z,1.57
2019-05-23T18:11:57.457Z,2.00
2019-05-23T18:14:25.956Z,1.30
2019-05-23T18:16:54.258Z,1.00
2019-05-23T18:19:23.266Z,1.37
2019-05-23T18:21:51.612Z,1.80
2019-05-23T18:24:20.208Z,0.97
2019-05-23T18:26:48.561Z,1.20
2019-05-23T18:29:16.860Z,1.10
2019-05-23T18:31:46.387Z,1.33
2019-05-23T18:34:14.681Z,1.27
2019-05-23T18:36:43.661Z,1.93
2019-05-23T18:39:13.572Z,1.23
2019-05-23T18:41:41.903Z,1.83
2019-05-23T18:44:11.301Z,1.50
2019-05-23T18:46:43.952Z,1.30
2019-05-23T18:49:12.619Z,1.93
2019-05-23T18:51:40.991Z,2.40
2019-05-23T18:54:09.275Z,1.57
2019-05-23T18:56:37.614Z,1.70
2019-05-23T18:59:07.254Z,1.10
2019-05-23T19:01:36.482Z,1.40
2019-05-23T19:04:05.556Z,1.63
2019-05-23T19:06:34.174Z,1.10
2019-05-23T19:09:02.601Z,1.33
2019-05-23T19:11:31.329Z,1.10
2019-05-23T19:13:59.759Z,1.53
2019-05-23T19:16:28.291Z,1.70
2019-05-23T19:18:56.856Z,1.40
2019-05-23T19:21:26.568Z,2.03
2019-05-23T19:23:55.038Z,1.93
2019-05-23T19:26:23.954Z,1.73
2019-05-23T19:28:52.521Z,1.47
2019-05-23T19:31:21.115Z,1.40
2019-05-23T19:33:49.852Z,1.63
2019-05-23T19:36:18.483Z,1.70
2019-05-23T19:38:46.763Z,1.90
2019-05-23T19:41:15.441Z,2.07
2019-05-23T19:43:47.737Z,1.83
2019-05-23T19:46:14.598Z,1.67
2019-05-23T19:48:43.074Z,2.00
2019-05-23T19:51:11.632Z,1.57
2019-05-23T19:53:40.851Z,1.67
2019-05-23T19:56:09.582Z,1.93
2019-05-23T19:58:37.915Z,1.80
2019-05-23T20:01:06.492Z,2.00
2019-05-23T20:03:34.835Z,2.00
2019-05-23T20:06:04.804Z,1.73
2019-05-23T20:08:33.047Z,2.03
2019-05-23T20:11:01.476Z,1.60
2019-05-23T20:13:30.017Z,1.70
2019-05-23T20:15:58.288Z,2.30
2019-05-23T20:18:26.957Z,2.07
2019-05-23T20:20:55.284Z,1.70
2019-05-23T20:23:23.661Z,2.50
2019-05-23T20:25:51.904Z,2.20
2019-05-23T20:28:20.346Z,2.63
2019-05-23T20:30:50.332Z,2.13
2019-05-23T20:33:18.689Z,2.30
2019-05-23T20:35:46.955Z,2.43
2019-05-23T20:38:15.393Z,2.43
2019-05-23T20:40:43.713Z,2.13
2019-05-23T20:43:12.001Z,2.47
2019-05-23T20:45:40.278Z,2.50
2019-05-23T20:48:08.835Z,2.30
2019-05-23T20:50:37.108Z,1.40
2019-05-23T20:53:05.362Z,2.00
2019-05-23T20:55:34.016Z,2.43
2019-05-23T20:58:02.896Z,3.50
2019-05-23T21:00:35.553Z,2.70
2019-05-23T21:03:04.279Z,2.80
2019-05-23T21:05:32.544Z,3.23
2019-05-23T21:08:00.847Z,2.77
2019-05-23T21:10:43.632Z,2.53
2019-05-23T21:13:12.051Z,2.70
2019-05-23T21:15:41.041Z,2.67
2019-05-23T21:18:09.529Z,2.50
2019-05-23T21:20:37.859Z,2.60
2019-05-23T21:23:06.112Z,2.33
2019-05-23T21:25:36.516Z,2.60
2019-05-23T21:28:04.852Z,3.00
2019-05-23T21:30:33.102Z,2.10
2019-05-23T21:33:01.354Z,2.97
2019-05-23T21:35:30.500Z,3.30
2019-05-23T21:37:58.793Z,3.17
2019-05-23T21:40:32.991Z,3.20
2019-05-23T21:43:01.248Z,2.40
2019-05-23T21:45:29.628Z,2.47
2019-05-23T21:47:57.925Z,2.60
2019-05-23T21:50:26.279Z,2.90
2019-05-23T21:52:54.574Z,3.43
2019-05-23T21:55:35.146Z,2.50
2019-05-23T21:58:04.264Z,3.27
2019-05-23T22:01:07.649Z,3.13
2019-05-23T22:03:41.879Z,3.07
2019-05-23T22:06:13.133Z,2.43
2019-05-23T22:08:41.653Z,2.33
2019-05-23T22:11:10.097Z,3.00
2019-05-23T22:13:38.453Z,3.43
2019-05-23T22:16:06.870Z,3.07
2019-05-23T22:18:35.185Z,3.50
2019-05-23T22:21:03.427Z,3.20
2019-05-23T22:23:34.578Z,3.43
2019-05-23T22:26:01.855Z,3.60
2019-05-23T22:28:30.144Z,2.90
2019-05-23T22:30:58.404Z,3.70
2019-05-23T22:33:40.119Z,3.37
2019-05-23T22:36:08.431Z,3.33
2019-05-23T22:38:36.723Z,3.37
2019-05-23T22:41:05.111Z,3.73
2019-05-23T22:43:33.399Z,3.03
2019-05-23T22:46:01.657Z,3.17
2019-05-23T22:48:29.917Z,3.23
2019-05-23T22:50:58.207Z,3.23
2019-05-23T22:53:26.598Z,3.37
2019-05-23T22:55:54.889Z,2.93
2019-05-23T22:58:23.132Z,3.77
2019-05-23T23:00:51.518Z,3.03
2019-05-23T23:03:19.809Z,4.37
2019-05-23T23:06:07.603Z,3.60
2019-05-23T23:08:37.331Z,3.27
2019-05-23T23:11:05.771Z,3.83
2019-05-23T23:13:38.814Z,3.37
2019-05-23T23:16:04.279Z,2.93
2019-05-23T23:18:32.536Z,2.60
2019-05-23T23:21:00.823Z,2.50
2019-05-23T23:23:29.061Z,3.17
2019-05-23T23:25:57.423Z,2.93
2019-05-23T23:28:25.682Z,3.33
2019-05-23T23:30:54.022Z,3.23
2019-05-23T23:33:22.319Z,3.60
2019-05-23T23:35:50.557Z,2.50
2019-05-23T23:38:18.854Z,2.20
2019-05-23T23:40:47.112Z,2.60
2019-05-23T23:43:15.573Z,2.43
2019-05-23T23:46:01.923Z,2.87
2019-05-23T23:48:48.080Z,2.80
2019-05-23T23:51:34.589Z,3.70
2019-05-23T23:54:21.030Z,2.97
2019-05-23T23:57:07.497Z,2.77
2019-05-23T23:59:35.105Z,3.60
